createdAt,value
2018-12-13T00:01:46.428Z,20.73
2018-12-13T00:04:14.591Z,23.90
2018-12-13T00:06:42.779Z,23.20
2018-12-13T00:09:10.941Z,19.77
2018-12-13T00:11:39.295Z,21.67
2018-12-13T00:14:07.500Z,24.53
2018-12-13T00:16:35.648Z,23.60
2018-12-13T00:19:03.832Z,23.13
2018-12-13T00:21:32.024Z,21.87
2018-12-13T00:24:00.200Z,24.57
2018-12-13T00:26:28.448Z,24.30
2018-12-13T00:28:56.633Z,26.17
2018-12-13T00:31:24.802Z,24.20
2018-12-13T00:33:53.442Z,28.60
2018-12-13T00:36:21.625Z,24.07
2018-12-13T00:38:49.805Z,23.67
2018-12-13T00:41:17.983Z,23.73
2018-12-13T00:43:46.271Z,22.80
2018-12-13T00:46:14.558Z,23.93
2018-12-13T00:48:42.763Z,23.47
2018-12-13T00:51:10.923Z,24.37
2018-12-13T00:53:39.112Z,23.07
2018-12-13T00:56:07.276Z,24.50
2018-12-13T00:58:35.456Z,27.03
2018-12-13T01:01:03.610Z,25.13
2018-12-13T01:03:31.794Z,25.67
2018-12-13T01:06:00.101Z,26.03
2018-12-13T01:08:28.271Z,25.37
2018-12-13T01:10:56.435Z,26.77
2018-12-13T01:13:24.617Z,30.60
2018-12-13T01:15:52.791Z,25.80
2018-12-13T01:18:20.984Z,25.93
2018-12-13T01:20:49.149Z,28.77
2018-12-13T01:23:17.321Z,28.07
2018-12-13T01:25:45.494Z,25.73
2018-12-13T01:28:13.684Z,27.77
2018-12-13T01:30:41.896Z,25.87
2018-12-13T01:33:10.046Z,26.90
2018-12-13T01:35:38.232Z,26.30
2018-12-13T01:38:06.397Z,24.23
2018-12-13T01:40:34.663Z,27.00
2018-12-13T01:43:02.865Z,25.23
2018-12-13T01:45:31.055Z,25.40
2018-12-13T01:47:59.227Z,25.33
2018-12-13T01:50:27.416Z,27.90
2018-12-13T01:52:55.582Z,26.73
2018-12-13T01:55:23.769Z,24.10
2018-12-13T01:57:51.933Z,27.50
2018-12-13T02:00:20.087Z,25.53
2018-12-13T02:02:48.266Z,25.90
2018-12-13T02:05:16.428Z,23.83
2018-12-13T02:07:44.613Z,24.03
2018-12-13T02:10:12.772Z,25.17
2018-12-13T02:12:40.951Z,24.27
2018-12-13T02:15:09.191Z,23.60
2018-12-13T02:17:37.375Z,21.27
2018-12-13T02:20:05.712Z,24.37
2018-12-13T02:22:33.992Z,21.47
2018-12-13T02:25:02.325Z,24.60
2018-12-13T02:27:30.507Z,23.77
2018-12-13T02:29:58.655Z,23.07
2018-12-13T02:32:26.843Z,24.40
2018-12-13T02:34:55.027Z,22.77
2018-12-13T02:37:23.197Z,26.77
2018-12-13T02:39:51.374Z,22.20
2018-12-13T02:42:19.589Z,25.43
2018-12-13T02:44:47.757Z,25.93
2018-12-13T02:47:15.925Z,25.70
2018-12-13T02:49:44.104Z,28.23
2018-12-13T02:52:12.387Z,25.83
2018-12-13T02:54:40.639Z,26.83
2018-12-13T02:57:08.981Z,25.07
2018-12-13T02:59:37.245Z,25.37
2018-12-13T03:02:05.428Z,25.07
2018-12-13T03:04:33.615Z,29.83
2018-12-13T03:07:01.861Z,28.43
2018-12-13T03:09:30.039Z,24.03
2018-12-13T03:11:58.229Z,28.23
2018-12-13T03:14:26.438Z,25.67
2018-12-13T03:16:54.690Z,27.60
2018-12-13T03:19:22.854Z,23.40
2018-12-13T03:21:51.039Z,30.23
2018-12-13T03:24:19.235Z,26.20
2018-12-13T03:26:47.434Z,29.37
2018-12-13T03:29:15.699Z,23.63
2018-12-13T03:31:43.865Z,28.47
2018-12-13T03:34:12.036Z,26.03
2018-12-13T03:36:40.220Z,27.03
2018-12-13T03:39:08.396Z,28.57
2018-12-13T03:41:36.679Z,27.50
2018-12-13T03:44:04.840Z,33.23
2018-12-13T03:46:33.022Z,32.00
2018-12-13T03:49:01.216Z,28.83
2018-12-13T03:51:29.411Z,32.57
2018-12-13T03:53:57.565Z,27.20
2018-12-13T03:56:25.761Z,28.17
2018-12-13T03:58:53.931Z,31.87
2018-12-13T04:01:22.117Z,29.33
2018-12-13T04:03:50.360Z,29.13
2018-12-13T04:06:18.533Z,31.37
2018-12-13T04:08:46.742Z,30.33
2018-12-13T04:11:14.889Z,28.87
2018-12-13T04:13:43.097Z,28.43
2018-12-13T04:16:11.234Z,28.30
2018-12-13T04:18:39.555Z,28.43
2018-12-13T04:21:07.747Z,29.07
2018-12-13T04:23:35.990Z,29.10
2018-12-13T04:26:04.144Z,32.57
2018-12-13T04:28:32.329Z,28.27
2018-12-13T04:31:00.491Z,32.20
2018-12-13T04:33:28.682Z,29.00
2018-12-13T04:35:56.863Z,27.90
2018-12-13T04:38:25.116Z,29.03
2018-12-13T04:40:53.291Z,28.17
2018-12-13T04:43:21.478Z,30.50
2018-12-13T04:45:49.648Z,30.23
2018-12-13T04:48:17.843Z,30.20
2018-12-13T04:50:46.025Z,34.73
2018-12-13T04:53:14.222Z,27.63
2018-12-13T04:55:42.472Z,32.43
2018-12-13T04:58:11.302Z,30.50
2018-12-13T05:00:39.481Z,33.60
2018-12-13T05:03:07.650Z,33.33
2018-12-13T05:05:35.826Z,31.17
2018-12-13T05:08:03.986Z,33.43
2018-12-13T05:10:55.164Z,34.97
2018-12-13T05:13:23.332Z,32.63
2018-12-13T05:15:51.586Z,33.73
2018-12-13T05:18:19.840Z,33.97
2018-12-13T05:20:48.120Z,35.10
2018-12-13T05:23:16.424Z,34.57
2018-12-13T05:25:44.608Z,34.97
2018-12-13T05:28:12.775Z,33.13
2018-12-13T05:30:41.044Z,34.17
2018-12-13T05:33:09.215Z,36.13
2018-12-13T05:35:37.373Z,34.70
2018-12-13T05:38:05.578Z,34.67
2018-12-13T05:40:34.197Z,35.57
2018-12-13T05:43:02.368Z,38.20
2018-12-13T05:45:30.540Z,36.03
2018-12-13T05:47:58.876Z,39.10
2018-12-13T05:50:27.070Z,37.37
2018-12-13T05:52:55.270Z,39.67
2018-12-13T05:55:23.447Z,36.30
2018-12-13T05:57:51.642Z,38.83
2018-12-13T06:00:19.809Z,39.07
2018-12-13T06:02:48.024Z,43.67
2018-12-13T06:05:16.168Z,38.03
2018-12-13T06:07:44.363Z,36.37
2018-12-13T06:10:12.549Z,36.93
2018-12-13T06:12:40.741Z,40.87
2018-12-13T06:15:08.917Z,41.70
2018-12-13T06:17:37.185Z,38.57
2018-12-13T06:20:06.631Z,37.60
2018-12-13T06:22:34.804Z,35.40
2018-12-13T06:25:03.510Z,37.13
2018-12-13T06:27:31.696Z,33.43
2018-12-13T06:29:59.862Z,36.27
2018-12-13T06:32:28.056Z,37.47
2018-12-13T06:34:56.208Z,34.97
2018-12-13T06:37:24.404Z,40.57
2018-12-13T06:39:52.590Z,32.50
2018-12-13T06:42:20.888Z,37.67
2018-12-13T06:44:49.151Z,34.03
2018-12-13T06:47:18.187Z,33.00
2018-12-13T06:49:46.358Z,33.40
2018-12-13T06:52:14.618Z,36.00
2018-12-13T06:54:42.741Z,35.03
2018-12-13T06:57:10.994Z,31.70
2018-12-13T06:59:39.158Z,28.43
2018-12-13T07:02:07.408Z,31.23
2018-12-13T07:04:35.757Z,31.13
2018-12-13T07:07:04.012Z,24.47
2018-12-13T07:09:32.200Z,31.10
2018-12-13T07:12:00.359Z,25.33
2018-12-13T07:14:28.565Z,24.47
2018-12-13T07:16:56.740Z,24.90
2018-12-13T07:19:24.924Z,25.20
2018-12-13T07:21:53.090Z,22.60
2018-12-13T07:24:21.269Z,24.03
2018-12-13T07:26:49.428Z,20.20
2018-12-13T07:29:17.624Z,20.73
2018-12-13T07:31:45.904Z,19.03
2018-12-13T07:34:14.064Z,21.97
2018-12-13T07:36:42.252Z,18.23
2018-12-13T07:39:10.421Z,24.40
2018-12-13T07:41:39.032Z,21.97
2018-12-13T07:44:07.171Z,20.30
2018-12-13T07:46:35.378Z,19.80
2018-12-13T07:49:03.622Z,23.67
2018-12-13T07:51:31.806Z,22.53
2018-12-13T07:53:59.966Z,23.43
2018-12-13T07:56:29.276Z,23.87
2018-12-13T07:58:57.616Z,21.70
2018-12-13T08:01:25.824Z,20.57
2018-12-13T08:03:54.008Z,22.40
2018-12-13T08:06:22.263Z,21.20
2018-12-13T08:08:50.444Z,20.40
2018-12-13T08:11:18.612Z,19.43
2018-12-13T08:13:46.792Z,19.27
2018-12-13T08:16:14.961Z,22.73
2018-12-13T08:18:43.141Z,21.27
2018-12-13T08:21:11.306Z,21.47
2018-12-13T08:23:39.489Z,20.93
2018-12-13T08:26:07.662Z,17.50
2018-12-13T08:28:35.858Z,20.27
2018-12-13T08:31:04.040Z,19.93
2018-12-13T08:33:32.226Z,20.40
2018-12-13T08:36:00.417Z,22.57
2018-12-13T08:38:28.583Z,20.37
2018-12-13T08:40:57.343Z,18.97
2018-12-13T08:43:25.595Z,19.17
2018-12-13T08:45:53.801Z,17.93
2018-12-13T08:48:21.982Z,16.70
2018-12-13T08:50:50.160Z,21.57
2018-12-13T08:53:18.336Z,19.27
2018-12-13T08:55:46.529Z,22.23
2018-12-13T08:58:14.784Z,16.63
2018-12-13T09:00:43.075Z,17.63
2018-12-13T09:03:11.236Z,17.17
2018-12-13T09:05:39.428Z,22.43
2018-12-13T09:08:07.634Z,17.50
2018-12-13T09:10:35.899Z,17.23
2018-12-13T09:13:04.101Z,19.87
2018-12-13T09:15:32.272Z,17.93
2018-12-13T09:18:00.525Z,14.37
2018-12-13T09:20:28.764Z,15.07
2018-12-13T09:22:56.935Z,15.83
2018-12-13T09:25:25.121Z,16.93
2018-12-13T09:27:53.296Z,15.93
2018-12-13T09:30:21.464Z,17.10
2018-12-13T09:32:49.665Z,16.03
2018-12-13T09:35:17.837Z,18.20
2018-12-13T09:37:47.693Z,15.17
2018-12-13T09:40:16.192Z,15.27
2018-12-13T09:42:44.333Z,16.63
2018-12-13T09:45:12.494Z,16.17
2018-12-13T09:47:40.681Z,15.13
2018-12-13T09:50:08.828Z,19.63
2018-12-13T09:52:36.988Z,15.80
2018-12-13T09:55:05.812Z,16.57
2018-12-13T09:57:34.296Z,15.77
2018-12-13T10:00:05.065Z,16.97
2018-12-13T10:02:33.240Z,15.37
2018-12-13T10:05:01.508Z,14.00
2018-12-13T10:07:29.656Z,13.97
2018-12-13T10:09:57.869Z,17.97
2018-12-13T10:12:26.029Z,16.80
2018-12-13T10:14:54.216Z,18.70
2018-12-13T10:17:22.380Z,14.87
2018-12-13T10:19:50.564Z,14.57
2018-12-13T10:22:18.720Z,15.47
2018-12-13T10:24:46.926Z,14.70
2018-12-13T10:27:15.092Z,16.57
2018-12-13T10:29:43.269Z,13.23
2018-12-13T10:32:11.454Z,18.27
2018-12-13T10:34:39.628Z,14.90
2018-12-13T10:39:53.588Z,15.40
2018-12-13T10:42:21.764Z,14.90
2018-12-13T10:44:50.519Z,13.87
2018-12-13T10:47:19.705Z,16.77
2018-12-13T10:49:48.660Z,17.13
2018-12-13T10:52:16.899Z,14.40
2018-12-13T10:54:45.079Z,15.13
2018-12-13T10:57:22.620Z,15.27
2018-12-13T10:59:52.389Z,13.93
2018-12-13T11:02:20.586Z,13.37
2018-12-13T11:04:48.759Z,12.87
2018-12-13T11:07:16.965Z,15.17
2018-12-13T11:09:45.131Z,14.87
2018-12-13T11:12:13.308Z,13.50
2018-12-13T11:14:41.568Z,15.93
2018-12-13T11:17:09.708Z,14.80
2018-12-13T11:19:37.877Z,12.33
2018-12-13T11:22:06.064Z,17.90
2018-12-13T11:24:34.230Z,13.40
2018-12-13T11:27:14.451Z,15.50
2018-12-13T11:29:57.644Z,13.90
2018-12-13T11:32:25.805Z,12.23
2018-12-13T11:34:54.502Z,14.30
2018-12-13T11:37:22.695Z,12.83
2018-12-13T11:39:50.935Z,13.20
2018-12-13T11:42:19.097Z,15.03
2018-12-13T11:44:47.268Z,16.23
2018-12-13T11:47:15.444Z,14.00
2018-12-13T11:49:43.603Z,12.70
2018-12-13T11:52:11.790Z,13.77
2018-12-13T11:54:41.237Z,13.93
2018-12-13T11:57:09.509Z,13.30
2018-12-13T11:59:37.696Z,12.27
2018-12-13T12:02:05.929Z,11.57
2018-12-13T12:04:34.137Z,13.40
2018-12-13T12:07:02.329Z,13.20
2018-12-13T12:09:30.549Z,12.70
2018-12-13T12:11:58.679Z,14.60
2018-12-13T12:14:26.976Z,12.53
2018-12-13T12:16:55.125Z,14.97
2018-12-13T12:19:23.304Z,11.33
2018-12-13T12:21:51.461Z,15.57
2018-12-13T12:24:20.012Z,13.70
2018-12-13T12:26:48.274Z,14.53
2018-12-13T12:29:16.443Z,14.77
2018-12-13T12:31:44.603Z,13.73
2018-12-13T12:34:12.808Z,12.57
2018-12-13T12:36:41.000Z,14.23
2018-12-13T12:39:09.156Z,15.20
2018-12-13T12:41:37.330Z,13.57
2018-12-13T12:44:05.485Z,15.13
2018-12-13T12:46:33.682Z,13.63
2018-12-13T12:49:01.837Z,12.57
2018-12-13T12:51:30.034Z,14.03
2018-12-13T12:53:58.196Z,12.00
2018-12-13T12:56:26.375Z,14.00
2018-12-13T12:58:54.545Z,14.93
2018-12-13T13:01:22.744Z,14.33
2018-12-13T13:03:50.916Z,14.50
2018-12-13T13:06:19.092Z,18.30
2018-12-13T13:08:47.267Z,13.97
2018-12-13T13:11:15.435Z,13.03
2018-12-13T13:13:43.598Z,15.63
2018-12-13T13:16:11.795Z,16.30
2018-12-13T13:18:39.960Z,15.60
2018-12-13T13:21:08.157Z,15.07
2018-12-13T13:23:36.403Z,16.13
2018-12-13T13:26:04.585Z,12.80
2018-12-13T13:28:32.841Z,16.83
2018-12-13T13:31:01.014Z,16.90
2018-12-13T13:33:29.189Z,18.57
2018-12-13T13:35:57.344Z,16.77
2018-12-13T13:38:25.534Z,15.80
2018-12-13T13:40:53.750Z,14.60
2018-12-13T13:43:21.928Z,18.20
2018-12-13T13:45:50.084Z,19.13
2018-12-13T13:48:18.308Z,17.07
2018-12-13T13:50:46.460Z,16.47
2018-12-13T13:53:14.637Z,18.47
2018-12-13T13:55:42.800Z,15.37
2018-12-13T13:58:11.770Z,14.73
2018-12-13T14:00:40.026Z,14.73
2018-12-13T14:03:08.196Z,18.13
2018-12-13T14:05:36.509Z,15.00
2018-12-13T14:08:04.724Z,16.97
2018-12-13T14:10:32.909Z,16.27
2018-12-13T14:13:01.076Z,16.73
2018-12-13T14:15:29.496Z,14.63
2018-12-13T14:17:57.720Z,16.50
2018-12-13T14:20:25.992Z,14.77
2018-12-13T14:22:54.163Z,12.83
2018-12-13T14:25:22.358Z,12.03
2018-12-13T14:27:50.542Z,14.57
2018-12-13T14:30:18.801Z,14.40
2018-12-13T14:32:47.024Z,16.37
2018-12-13T14:35:15.187Z,16.03
2018-12-13T14:37:43.337Z,18.13
2018-12-13T14:40:11.618Z,16.53
2018-12-13T14:42:39.823Z,14.87
2018-12-13T14:45:08.065Z,14.63
2018-12-13T14:47:36.270Z,15.23
2018-12-13T14:50:06.214Z,17.83
2018-12-13T14:52:34.400Z,16.33
2018-12-13T14:55:02.717Z,17.67
2018-12-13T14:57:30.941Z,16.27
2018-12-13T14:59:59.096Z,18.10
2018-12-13T15:02:27.279Z,17.03
2018-12-13T15:04:55.617Z,16.63
2018-12-13T15:07:23.796Z,15.70
2018-12-13T15:09:51.974Z,17.83
2018-12-13T15:12:20.262Z,16.97
2018-12-13T15:14:48.420Z,18.20
2018-12-13T15:17:16.602Z,17.67
2018-12-13T15:19:44.763Z,23.37
2018-12-13T15:22:12.968Z,17.70
2018-12-13T15:24:41.182Z,23.03
2018-12-13T15:40:32.170Z,17.20
2018-12-13T15:45:46.273Z,18.77
2018-12-13T15:48:14.550Z,19.93
2018-12-13T15:50:42.729Z,18.30
2018-12-13T15:53:11.294Z,18.97
2018-12-13T15:55:39.679Z,18.17
2018-12-13T15:58:08.094Z,18.50
2018-12-13T16:00:36.432Z,19.50
2018-12-13T16:03:04.802Z,19.93
2018-12-13T16:05:33.268Z,21.07
2018-12-13T16:08:01.578Z,18.97
2018-12-13T16:10:30.019Z,20.13
2018-12-13T16:12:58.852Z,24.60
2018-12-13T16:15:27.682Z,24.27
2018-12-13T16:17:56.242Z,20.87
2018-12-13T16:20:24.605Z,21.40
2018-12-13T16:22:52.866Z,20.57
2018-12-13T16:25:21.089Z,22.97
2018-12-13T16:27:49.279Z,20.57
2018-12-13T16:30:17.451Z,19.90
2018-12-13T16:32:45.649Z,23.37
2018-12-13T16:35:13.903Z,20.83
2018-12-13T16:37:42.068Z,50.30
2018-12-13T16:40:10.563Z,42.90
2018-12-13T16:42:38.972Z,43.37
2018-12-13T16:45:07.493Z,28.23
2018-12-13T16:47:35.688Z,47.47
2018-12-13T16:50:05.131Z,37.03
2018-12-13T16:52:33.307Z,37.70
2018-12-13T16:55:01.715Z,35.67
2018-12-13T16:57:29.951Z,24.53
2018-12-13T16:59:58.333Z,21.63
2018-12-13T17:02:26.571Z,24.90
2018-12-13T17:04:54.956Z,23.27
2018-12-13T17:07:23.120Z,22.27
2018-12-13T17:09:51.304Z,21.73
2018-12-13T17:12:19.899Z,22.13
2018-12-13T17:14:48.161Z,25.73
2018-12-13T17:17:17.072Z,24.37
2018-12-13T17:19:45.255Z,24.03
2018-12-13T17:22:13.422Z,25.87
2018-12-13T17:24:41.596Z,28.70
2018-12-13T17:27:09.791Z,25.70
2018-12-13T17:29:37.991Z,25.77
2018-12-13T17:32:06.173Z,26.03
2018-12-13T17:34:34.378Z,23.87
2018-12-13T17:37:02.659Z,22.37
2018-12-13T17:39:31.043Z,27.60
2018-12-13T17:41:59.216Z,22.77
2018-12-13T17:44:27.405Z,22.87
2018-12-13T17:46:55.606Z,20.50
2018-12-13T17:49:23.765Z,23.77
2018-12-13T17:51:51.943Z,23.30
2018-12-13T17:54:20.123Z,20.67
2018-12-13T17:56:49.518Z,25.70
2018-12-13T17:59:18.292Z,23.23
2018-12-13T18:01:46.481Z,25.17
2018-12-13T18:04:15.546Z,27.60
2018-12-13T18:06:43.869Z,26.40
2018-12-13T18:09:12.031Z,27.93
2018-12-13T18:11:41.084Z,36.07
2018-12-13T18:14:09.297Z,26.63
2018-12-13T18:16:43.248Z,29.20
2018-12-13T18:19:07.632Z,27.27
2018-12-13T18:21:35.861Z,26.47
2018-12-13T18:24:04.099Z,30.60
2018-12-13T18:26:32.272Z,30.87
2018-12-13T18:29:00.477Z,30.93
2018-12-13T18:31:28.637Z,25.87
2018-12-13T18:33:56.821Z,25.90
2018-12-13T18:36:25.080Z,25.97
2018-12-13T18:38:53.361Z,25.63
2018-12-13T18:41:21.521Z,33.07
2018-12-13T18:43:50.077Z,50.87
2018-12-13T18:46:18.250Z,42.30
2018-12-13T18:48:46.779Z,28.90
2018-12-13T18:51:14.956Z,27.13
2018-12-13T18:53:43.156Z,25.73
2018-12-13T18:56:11.332Z,29.87
2018-12-13T18:58:39.546Z,24.00
2018-12-13T19:01:07.715Z,27.00
2018-12-13T19:03:35.920Z,27.97
2018-12-13T19:06:04.513Z,28.00
2018-12-13T19:08:32.687Z,24.83
2018-12-13T19:11:00.858Z,24.13
2018-12-13T19:13:29.047Z,28.00
2018-12-13T19:15:57.229Z,28.57
2018-12-13T19:18:25.485Z,24.50
2018-12-13T19:20:53.718Z,26.30
2018-12-13T19:23:21.892Z,63.50
2018-12-13T19:25:51.001Z,71.80
2018-12-13T19:28:20.122Z,86.70
2018-12-13T19:30:48.386Z,55.20
2018-12-13T19:33:16.570Z,27.37
2018-12-13T19:35:44.837Z,27.67
2018-12-13T19:38:12.982Z,43.07
2018-12-13T19:40:41.184Z,28.33
2018-12-13T19:43:09.356Z,34.27
2018-12-13T19:45:37.646Z,41.77
2018-12-13T19:48:05.871Z,35.00
2018-12-13T19:50:34.055Z,30.70
2018-12-13T19:53:02.248Z,26.43
2018-12-13T19:55:30.414Z,37.13
2018-12-13T19:57:58.640Z,36.23
2018-12-13T20:00:26.826Z,34.47
2018-12-13T20:02:55.089Z,46.37
2018-12-13T20:05:23.245Z,27.00
2018-12-13T20:07:51.444Z,28.17
2018-12-13T20:10:19.664Z,33.60
2018-12-13T20:12:47.876Z,23.77
2018-12-13T20:15:16.111Z,33.73
2018-12-13T20:17:44.301Z,25.47
2018-12-13T20:20:12.557Z,27.67
2018-12-13T20:22:40.766Z,23.10
2018-12-13T20:25:08.933Z,24.97
2018-12-13T20:27:37.118Z,28.60
2018-12-13T20:30:06.510Z,36.63
2018-12-13T20:32:34.656Z,20.17
2018-12-13T20:35:04.649Z,68.83
2018-12-13T20:37:32.988Z,22.90
2018-12-13T20:40:01.184Z,25.67
2018-12-13T20:42:29.361Z,23.17
2018-12-13T20:44:57.535Z,19.23
2018-12-13T20:47:25.753Z,18.80
2018-12-13T20:49:53.905Z,31.80
2018-12-13T20:52:22.071Z,22.17
2018-12-13T20:54:50.290Z,20.50
2018-12-13T20:57:18.456Z,23.03
2018-12-13T20:59:46.675Z,22.60
2018-12-13T21:02:14.846Z,21.53
2018-12-13T21:04:43.118Z,20.13
2018-12-13T21:07:11.329Z,18.50
2018-12-13T21:09:39.524Z,20.50
2018-12-13T21:12:07.867Z,21.00
2018-12-13T21:14:36.045Z,20.10
2018-12-13T21:17:04.274Z,21.93
2018-12-13T21:19:32.479Z,20.10
2018-12-13T21:22:01.351Z,25.53
2018-12-13T21:24:29.513Z,21.23
2018-12-13T21:26:57.707Z,21.83
2018-12-13T21:29:25.981Z,21.90
2018-12-13T21:31:54.162Z,22.60
2018-12-13T21:34:23.109Z,21.23
2018-12-13T21:36:51.313Z,24.37
2018-12-13T21:39:19.515Z,23.27
2018-12-13T21:41:47.698Z,20.97
2018-12-13T21:44:16.176Z,25.23
2018-12-13T21:46:46.081Z,24.40
2018-12-13T21:49:14.275Z,23.87
2018-12-13T21:51:42.471Z,26.07
2018-12-13T21:54:10.656Z,22.93
2018-12-13T21:56:38.878Z,26.57
2018-12-13T21:59:07.106Z,25.87
2018-12-13T22:01:35.265Z,23.33
2018-12-13T22:04:03.555Z,24.70
2018-12-13T22:06:31.815Z,27.90
2018-12-13T22:09:00.031Z,26.27
2018-12-13T22:11:28.187Z,27.50
2018-12-13T22:13:56.478Z,25.63
2018-12-13T22:16:24.678Z,26.07
2018-12-13T22:18:52.933Z,25.57
2018-12-13T22:21:21.111Z,24.23
2018-12-13T22:23:49.355Z,27.57
2018-12-13T22:26:17.597Z,28.27
2018-12-13T22:28:45.789Z,26.63
2018-12-13T22:31:14.044Z,31.30
2018-12-13T22:33:42.228Z,25.53
2018-12-13T22:36:10.416Z,27.47
2018-12-13T22:38:38.568Z,27.13
2018-12-13T22:41:06.850Z,26.57
2018-12-13T22:43:35.109Z,28.10
2018-12-13T22:46:03.390Z,27.17
2018-12-13T22:48:32.334Z,28.43
2018-12-13T22:51:00.710Z,28.27
2018-12-13T22:53:29.157Z,27.83
2018-12-13T22:55:57.408Z,28.20
2018-12-13T22:58:25.661Z,28.10
2018-12-13T23:00:53.975Z,30.83
2018-12-13T23:03:22.126Z,30.87
2018-12-13T23:05:50.470Z,27.93
2018-12-13T23:08:18.653Z,30.30
2018-12-13T23:10:46.825Z,32.63
2018-12-13T23:13:15.082Z,28.30
2018-12-13T23:15:43.353Z,30.07
2018-12-13T23:18:12.403Z,27.60
2018-12-13T23:20:40.832Z,30.63
2018-12-13T23:23:09.022Z,29.90
2018-12-13T23:25:37.193Z,29.83
2018-12-13T23:28:05.390Z,27.43
2018-12-13T23:30:33.556Z,27.10
2018-12-13T23:33:01.740Z,29.87
2018-12-13T23:35:29.909Z,29.27
2018-12-13T23:37:58.105Z,33.03
2018-12-13T23:40:26.263Z,32.67
2018-12-13T23:42:54.453Z,31.13
2018-12-13T23:45:22.619Z,30.70
2018-12-13T23:47:50.786Z,30.87
2018-12-13T23:50:18.981Z,27.37
2018-12-13T23:52:47.173Z,30.30
2018-12-13T23:55:15.370Z,31.47
2018-12-13T23:57:43.535Z,33.27
